Terminal Aerodrome Forecast
Issued by NWS

Home | Current Version | Previous Version | Graphics & Text | Print | Product List | Glossary On
Versions: 1 2 3 4 5 6 7 8 9 10 11 12 13 14 15 16 17 18 19 20 21 22 23 24 25 26 27 28 29 30 31 32 33 34 35 36 37 38 39 40 41 42 43 44 45 46 47 48
000
FTUS43 KGRB 120520
TAFRHI
TAF
KRHI 120520Z 1206/1306 33012G18KT P6SM -SHSN SCT025 OVC035
      TEMPO 1206/1210 2SM -SHSN BKN025
     FM121000 32009G16KT P6SM -SHSN BKN022
     FM121400 32009G17KT P6SM -SHSN BKN016
     FM121800 32011G16KT P6SM -SHSN BKN024
     FM122000 32010G15KT P6SM SCT025 SCT035
     FM122200 31004KT P6SM SCT040=

USA.gov is the U.S. government's official web portal to all federal, state and local government web resources and services.